createdAt,value
2019-02-24T00:02:01.567Z,13.50
2019-02-24T00:04:27.786Z,13.63
2019-02-24T00:06:54.432Z,13.53
2019-02-24T00:09:20.626Z,13.07
2019-02-24T00:11:46.880Z,11.30
2019-02-24T00:14:13.206Z,10.23
2019-02-24T00:16:39.395Z,15.30
2019-02-24T00:19:05.955Z,12.13
2019-02-24T00:21:32.235Z,13.80
2019-02-24T00:23:58.587Z,10.30
2019-02-24T00:26:25.204Z,13.27
2019-02-24T00:28:51.537Z,10.77
2019-02-24T00:31:18.172Z,13.80
2019-02-24T00:33:44.418Z,14.20
2019-02-24T00:36:10.949Z,13.07
2019-02-24T00:38:37.333Z,13.50
2019-02-24T00:41:04.184Z,15.57
2019-02-24T00:43:30.623Z,12.60
2019-02-24T00:45:56.785Z,12.10
2019-02-24T00:48:23.105Z,12.17
2019-02-24T00:50:49.384Z,14.40
2019-02-24T00:53:15.599Z,10.60
2019-02-24T00:55:42.038Z,14.57
2019-02-24T00:58:15.965Z,17.33
2019-02-24T01:00:36.910Z,20.00
2019-02-24T01:03:03.376Z,12.40
2019-02-24T01:05:29.651Z,14.13
2019-02-24T01:07:56.086Z,14.20
2019-02-24T01:10:22.276Z,13.73
2019-02-24T01:12:49.148Z,16.20
2019-02-24T01:15:15.413Z,13.37
2019-02-24T01:17:41.642Z,15.17
2019-02-24T01:20:08.211Z,14.77
2019-02-24T01:22:34.396Z,12.13
2019-02-24T01:25:00.967Z,12.90
2019-02-24T01:27:27.210Z,13.30
2019-02-24T01:29:53.597Z,15.03
2019-02-24T01:32:19.940Z,12.37
2019-02-24T01:34:46.277Z,12.13
2019-02-24T01:37:12.873Z,14.27
2019-02-24T01:39:39.364Z,15.60
2019-02-24T01:42:05.680Z,12.43
2019-02-24T01:44:31.943Z,13.70
2019-02-24T01:46:58.324Z,14.43
2019-02-24T01:49:24.638Z,16.43
2019-02-24T01:51:50.935Z,17.73
2019-02-24T01:54:17.416Z,14.80
2019-02-24T01:56:43.680Z,15.00
2019-02-24T01:59:09.983Z,12.30
2019-02-24T02:01:36.697Z,14.57
2019-02-24T02:04:03.348Z,17.80
2019-02-24T02:06:29.797Z,12.67
2019-02-24T02:08:56.716Z,15.57
2019-02-24T02:11:23.189Z,14.93
2019-02-24T02:13:49.548Z,11.60
2019-02-24T02:16:16.071Z,15.13
2019-02-24T02:18:42.317Z,15.77
2019-02-24T02:21:08.680Z,16.50
2019-02-24T02:23:35.395Z,16.90
2019-02-24T02:26:01.898Z,15.90
2019-02-24T02:28:28.310Z,18.60
2019-02-24T02:30:54.861Z,12.37
2019-02-24T02:33:21.179Z,16.27
2019-02-24T02:35:48.036Z,13.53
2019-02-24T02:38:14.336Z,12.57
2019-02-24T02:40:40.530Z,18.67
2019-02-24T02:43:06.810Z,13.53
2019-02-24T02:45:33.409Z,12.80
2019-02-24T02:48:00.983Z,13.43
2019-02-24T02:50:27.456Z,13.67
2019-02-24T02:52:57.352Z,15.53
2019-02-24T02:55:25.408Z,13.87
2019-02-24T02:57:51.918Z,13.70
2019-02-24T03:00:32.748Z,15.00
2019-02-24T03:02:59.363Z,18.57
2019-02-24T03:05:26.294Z,17.90
2019-02-24T03:07:54.921Z,12.33
2019-02-24T03:10:21.225Z,15.13
2019-02-24T03:13:07.302Z,19.17
2019-02-24T03:15:37.028Z,17.50
2019-02-24T03:18:03.492Z,15.13
2019-02-24T03:20:30.181Z,17.57
2019-02-24T03:22:56.538Z,18.73
2019-02-24T03:25:23.087Z,16.77
2019-02-24T03:27:49.502Z,17.90
2019-02-24T03:30:15.924Z,16.60
2019-02-24T03:35:53.684Z,15.83
2019-02-24T03:38:20.241Z,14.50
2019-02-24T03:40:46.482Z,16.17
2019-02-24T03:43:13.581Z,17.63
2019-02-24T03:45:40.428Z,14.70
2019-02-24T03:48:06.757Z,16.70
2019-02-24T03:50:33.378Z,14.43
2019-02-24T03:53:00.340Z,16.80
2019-02-24T03:55:27.363Z,15.87
2019-02-24T03:57:54.323Z,17.53
2019-02-24T04:00:20.689Z,17.27
2019-02-24T04:02:47.689Z,17.23
2019-02-24T04:05:14.268Z,18.53
2019-02-24T04:07:40.772Z,15.67
2019-02-24T04:10:07.244Z,17.27
2019-02-24T04:12:33.633Z,18.60
2019-02-24T04:14:59.952Z,15.50
2019-02-24T04:17:26.217Z,19.07
2019-02-24T04:19:52.721Z,18.03
2019-02-24T04:22:19.543Z,22.57
2019-02-24T04:24:45.803Z,16.83
2019-02-24T04:27:15.193Z,16.67
2019-02-24T04:29:41.741Z,19.57
2019-02-24T04:32:08.568Z,18.70
2019-02-24T04:34:35.388Z,18.83
2019-02-24T04:37:01.575Z,18.43
2019-02-24T04:39:27.739Z,17.83
2019-02-24T04:45:29.756Z,18.57
2019-02-24T04:47:56.108Z,19.70
2019-02-24T04:50:22.519Z,17.17
2019-02-24T04:52:48.952Z,21.50
2019-02-24T04:55:16.000Z,21.53
2019-02-24T04:57:42.446Z,20.10
2019-02-24T05:00:09.291Z,21.20
2019-02-24T05:02:35.530Z,22.20
2019-02-24T05:05:01.881Z,20.97
2019-02-24T05:07:28.192Z,21.67
2019-02-24T05:09:54.516Z,17.90
2019-02-24T05:12:20.945Z,22.53
2019-02-24T05:14:47.633Z,16.90
2019-02-24T05:17:13.919Z,18.27
2019-02-24T05:19:40.276Z,18.90
2019-02-24T05:22:06.713Z,22.20
2019-02-24T05:24:33.031Z,19.53
2019-02-24T05:26:59.556Z,21.20
2019-02-24T05:29:26.086Z,21.43
2019-02-24T05:31:52.371Z,22.13
2019-02-24T05:34:18.931Z,21.07
2019-02-24T05:36:45.370Z,19.57
2019-02-24T05:39:12.106Z,18.67
2019-02-24T05:41:38.375Z,22.10
2019-02-24T05:44:04.791Z,18.30
2019-02-24T05:46:31.434Z,19.03
2019-02-24T05:48:58.252Z,20.90
2019-02-24T05:51:24.633Z,24.00
2019-02-24T05:53:50.930Z,19.50
2019-02-24T05:56:17.223Z,22.20
2019-02-24T05:58:43.728Z,19.90
2019-02-24T06:01:10.335Z,21.10
2019-02-24T06:03:36.820Z,21.33
2019-02-24T06:06:03.309Z,19.33
2019-02-24T06:08:29.743Z,22.20
2019-02-24T06:10:55.982Z,22.47
2019-02-24T06:13:22.503Z,20.27
2019-02-24T06:15:49.316Z,23.17
2019-02-24T06:18:15.989Z,20.60
2019-02-24T06:20:42.743Z,22.43
2019-02-24T06:23:09.076Z,22.63
2019-02-24T06:25:35.406Z,20.97
2019-02-24T06:28:01.723Z,21.00
2019-02-24T06:30:28.120Z,22.77
2019-02-24T06:32:54.450Z,21.73
2019-02-24T06:35:20.711Z,18.77
2019-02-24T06:37:47.060Z,20.90
2019-02-24T06:40:13.585Z,25.40
2019-02-24T06:42:40.012Z,22.17
2019-02-24T06:45:07.680Z,20.70
2019-02-24T06:47:34.002Z,21.50
2019-02-24T06:50:00.882Z,22.60
2019-02-24T06:52:28.080Z,21.73
2019-02-24T06:54:55.128Z,32.53
2019-02-24T06:57:21.404Z,20.93
2019-02-24T06:59:47.883Z,22.47
2019-02-24T07:02:14.223Z,20.17
2019-02-24T07:04:40.705Z,29.23
2019-02-24T07:07:07.140Z,22.33
2019-02-24T07:09:33.482Z,24.20
2019-02-24T07:12:00.182Z,26.63
2019-02-24T07:14:26.527Z,26.13
2019-02-24T07:16:53.049Z,25.50
2019-02-24T07:19:19.393Z,22.87
2019-02-24T07:21:45.910Z,25.03
2019-02-24T07:24:12.559Z,23.97
2019-02-24T07:26:39.421Z,25.90
2019-02-24T07:29:06.055Z,28.70
2019-02-24T07:31:32.440Z,22.37
2019-02-24T07:33:58.976Z,26.60
2019-02-24T07:39:48.424Z,23.83
2019-02-24T07:42:14.832Z,21.07
2019-02-24T07:44:41.358Z,21.63
2019-02-24T07:47:07.589Z,23.93
2019-02-24T07:49:34.048Z,21.83
2019-02-24T07:52:00.976Z,21.50
2019-02-24T07:54:27.329Z,23.93
2019-02-24T07:56:53.835Z,20.57
2019-02-24T07:59:20.473Z,25.53
2019-02-24T08:01:46.718Z,23.77
2019-02-24T08:04:13.209Z,20.90
2019-02-24T08:06:39.612Z,24.23
2019-02-24T08:09:06.226Z,28.40
2019-02-24T08:11:32.649Z,24.10
2019-02-24T08:13:59.104Z,19.97
2019-02-24T08:16:25.725Z,22.77
2019-02-24T08:18:52.229Z,25.40
2019-02-24T08:21:18.993Z,26.00
2019-02-24T08:23:45.430Z,28.10
2019-02-24T08:26:11.783Z,25.63
2019-02-24T08:28:38.296Z,23.17
2019-02-24T08:31:04.921Z,24.47
2019-02-24T08:33:31.389Z,22.57
2019-02-24T08:35:57.902Z,25.37
2019-02-24T08:38:24.553Z,25.13
2019-02-24T08:40:51.381Z,22.63
2019-02-24T08:43:17.923Z,25.30
2019-02-24T08:45:44.448Z,20.73
2019-02-24T08:48:10.905Z,22.57
2019-02-24T08:50:37.288Z,20.80
2019-02-24T08:53:03.758Z,20.67
2019-02-24T08:55:30.412Z,24.27
2019-02-24T08:57:56.841Z,25.70
2019-02-24T09:00:23.278Z,22.50
2019-02-24T09:02:49.802Z,25.70
2019-02-24T09:05:16.197Z,25.70
2019-02-24T09:07:42.477Z,25.23
2019-02-24T09:10:09.197Z,22.07
2019-02-24T09:12:35.548Z,21.43
2019-02-24T09:15:05.685Z,22.13
2019-02-24T09:17:32.495Z,21.43
2019-02-24T09:20:02.937Z,21.93
2019-02-24T09:22:29.372Z,18.77
2019-02-24T09:24:55.897Z,23.70
2019-02-24T09:27:22.461Z,20.13
2019-02-24T09:29:48.950Z,27.97
2019-02-24T09:32:15.603Z,21.90
2019-02-24T09:34:45.823Z,20.37
2019-02-24T09:37:12.585Z,21.27
2019-02-24T09:39:38.884Z,20.03
2019-02-24T09:42:05.293Z,19.83
2019-02-24T09:44:31.552Z,21.87
2019-02-24T09:46:58.322Z,22.03
2019-02-24T09:49:24.743Z,21.07
2019-02-24T09:51:52.375Z,21.33
2019-02-24T09:54:18.929Z,23.73
2019-02-24T09:56:45.556Z,20.13
2019-02-24T09:59:11.915Z,19.70
2019-02-24T10:01:38.702Z,20.63
2019-02-24T10:04:05.073Z,19.30
2019-02-24T10:06:31.520Z,21.30
2019-02-24T10:08:57.999Z,20.47
2019-02-24T10:11:26.362Z,20.03
2019-02-24T10:13:52.647Z,21.37
2019-02-24T10:16:19.536Z,22.60
2019-02-24T10:18:45.894Z,19.20
2019-02-24T10:21:12.348Z,21.73
2019-02-24T10:23:38.714Z,20.40
2019-02-24T10:26:05.448Z,20.93
2019-02-24T10:28:31.759Z,21.23
2019-02-24T10:30:58.397Z,22.23
2019-02-24T10:33:24.839Z,20.90
2019-02-24T10:35:51.389Z,19.53
2019-02-24T10:38:17.704Z,20.77
2019-02-24T10:40:44.445Z,20.83
2019-02-24T10:43:10.783Z,20.77
2019-02-24T10:45:37.160Z,20.63
2019-02-24T10:48:13.342Z,19.90
2019-02-24T10:50:31.915Z,20.70
2019-02-24T10:52:58.875Z,21.83
2019-02-24T10:55:33.904Z,19.80
2019-02-24T10:58:09.122Z,20.77
2019-02-24T11:00:35.767Z,21.10
2019-02-24T11:03:02.223Z,20.17
2019-02-24T11:05:28.652Z,21.00
2019-02-24T11:07:55.180Z,22.13
2019-02-24T11:10:21.673Z,21.43
2019-02-24T11:12:50.595Z,19.20
2019-02-24T11:15:17.155Z,21.13
2019-02-24T11:17:51.883Z,18.93
2019-02-24T11:20:18.561Z,18.90
2019-02-24T11:22:45.162Z,20.40
2019-02-24T11:25:12.718Z,19.90
2019-02-24T11:27:39.354Z,21.00
2019-02-24T11:30:08.849Z,18.70
2019-02-24T11:32:35.419Z,20.50
2019-02-24T11:35:02.634Z,19.37
2019-02-24T11:37:29.486Z,20.00
2019-02-24T11:39:55.718Z,21.20
2019-02-24T11:42:22.007Z,19.73
2019-02-24T11:44:48.504Z,19.30
2019-02-24T11:47:15.008Z,22.47
2019-02-24T11:49:41.246Z,20.80
2019-02-24T11:52:07.676Z,19.20
2019-02-24T11:54:34.216Z,18.03
2019-02-24T11:57:00.448Z,21.13
2019-02-24T11:59:27.805Z,19.30
2019-02-24T12:01:54.464Z,19.77
2019-02-24T12:04:20.904Z,47.10
2019-02-24T12:06:47.336Z,23.90
2019-02-24T12:09:13.972Z,21.20
2019-02-24T12:11:40.912Z,17.50
2019-02-24T12:14:07.322Z,19.50
2019-02-24T12:16:33.656Z,18.50
2019-02-24T12:22:23.662Z,20.50
2019-02-24T12:24:50.000Z,18.13
2019-02-24T12:27:16.443Z,17.03
2019-02-24T12:29:42.783Z,16.93
2019-02-24T12:32:09.289Z,20.70
2019-02-24T12:34:35.713Z,17.20
2019-02-24T12:37:02.010Z,19.20
2019-02-24T12:39:28.388Z,18.10
2019-02-24T12:41:54.623Z,19.30
2019-02-24T12:44:20.899Z,18.00
2019-02-24T12:46:47.214Z,19.77
2019-02-24T12:49:13.512Z,18.30
2019-02-24T12:51:40.064Z,18.07
2019-02-24T12:54:06.902Z,16.50
2019-02-24T12:56:34.119Z,17.70
2019-02-24T12:59:00.487Z,17.47
2019-02-24T13:01:27.609Z,18.50
2019-02-24T13:03:54.083Z,18.27
2019-02-24T13:06:20.380Z,19.00
2019-02-24T13:08:46.843Z,17.73
2019-02-24T13:11:13.346Z,18.83
2019-02-24T13:13:39.733Z,17.13
2019-02-24T13:16:06.167Z,17.87
2019-02-24T13:18:32.867Z,20.20
2019-02-24T13:20:59.186Z,19.17
2019-02-24T13:23:25.573Z,17.87
2019-02-24T13:25:51.859Z,18.37
2019-02-24T13:28:18.094Z,16.53
2019-02-24T13:30:44.743Z,18.57
2019-02-24T13:33:10.951Z,17.17
2019-02-24T13:35:37.397Z,16.23
2019-02-24T13:38:03.798Z,19.30
2019-02-24T13:40:30.163Z,17.23
2019-02-24T13:42:56.485Z,20.17
2019-02-24T13:48:34.283Z,18.07
2019-02-24T13:51:00.543Z,16.93
2019-02-24T13:53:27.310Z,16.40
2019-02-24T13:55:53.722Z,15.37
2019-02-24T13:58:20.131Z,17.30
2019-02-24T14:00:46.858Z,16.00
2019-02-24T14:06:36.595Z,18.13
2019-02-24T14:09:08.248Z,16.27
2019-02-24T14:11:34.758Z,18.77
2019-02-24T14:14:01.319Z,19.83
2019-02-24T14:16:27.648Z,16.80
2019-02-24T14:18:53.967Z,17.40
2019-02-24T14:21:20.278Z,18.33
2019-02-24T14:23:46.652Z,17.53
2019-02-24T14:26:12.883Z,19.83
2019-02-24T14:28:39.369Z,15.80
2019-02-24T14:31:05.943Z,17.87
2019-02-24T14:33:32.288Z,18.90
2019-02-24T14:35:58.573Z,15.50
2019-02-24T14:38:25.114Z,16.80
2019-02-24T14:40:51.372Z,19.17
2019-02-24T14:43:17.987Z,16.83
2019-02-24T14:45:49.594Z,19.33
2019-02-24T14:48:12.574Z,17.20
2019-02-24T14:50:38.923Z,19.33
2019-02-24T14:53:05.367Z,17.70
2019-02-24T14:55:31.745Z,20.80
2019-02-24T14:57:58.123Z,15.87
2019-02-24T15:00:24.760Z,18.83
2019-02-24T15:06:03.052Z,14.17
2019-02-24T15:08:29.354Z,16.30
2019-02-24T15:10:55.771Z,15.77
2019-02-24T15:13:22.217Z,15.53
2019-02-24T15:15:48.684Z,16.33
2019-02-24T15:18:14.973Z,17.87
2019-02-24T15:20:41.376Z,17.40
2019-02-24T15:23:08.025Z,14.67
2019-02-24T15:25:34.371Z,18.33
2019-02-24T15:28:01.084Z,15.80
2019-02-24T15:30:36.956Z,16.57
2019-02-24T15:33:03.676Z,13.93
2019-02-24T15:35:30.142Z,15.43
2019-02-24T15:37:57.086Z,14.13
2019-02-24T15:40:24.021Z,16.73
2019-02-24T15:42:50.554Z,18.40
2019-02-24T15:45:17.296Z,17.50
2019-02-24T15:47:43.775Z,15.33
2019-02-24T15:50:11.824Z,17.10
2019-02-24T15:52:38.261Z,16.77
2019-02-24T15:55:10.186Z,18.20
2019-02-24T15:57:36.927Z,17.47
2019-02-24T16:00:13.505Z,17.67
2019-02-24T16:02:40.173Z,16.03
2019-02-24T16:05:08.663Z,19.77
2019-02-24T16:07:35.151Z,19.70
2019-02-24T16:13:16.963Z,17.60
2019-02-24T16:15:41.465Z,17.97
2019-02-24T16:18:07.938Z,18.97
2019-02-24T16:20:36.079Z,21.40
2019-02-24T16:23:03.119Z,18.07
2019-02-24T16:25:29.724Z,20.40
2019-02-24T16:27:56.453Z,18.40
2019-02-24T16:30:23.076Z,22.30
2019-02-24T16:32:49.519Z,19.53
2019-02-24T16:35:17.085Z,21.07
2019-02-24T16:37:43.751Z,20.30
2019-02-24T16:40:19.192Z,20.73
2019-02-24T16:42:51.693Z,21.67
2019-02-24T16:45:18.669Z,19.87
2019-02-24T16:47:45.680Z,22.07
2019-02-24T16:50:17.250Z,21.87
2019-02-24T16:56:07.250Z,25.03
2019-02-24T16:58:33.766Z,21.60
2019-02-24T17:01:00.206Z,24.20
2019-02-24T17:03:26.726Z,23.00
2019-02-24T17:05:53.660Z,23.27
2019-02-24T17:08:19.925Z,22.57
2019-02-24T17:10:46.586Z,23.23
2019-02-24T17:13:13.196Z,24.77
2019-02-24T17:15:39.679Z,27.53
2019-02-24T17:18:06.261Z,22.20
2019-02-24T17:20:32.801Z,21.17
2019-02-24T17:22:59.277Z,24.83
2019-02-24T17:25:26.090Z,23.97
2019-02-24T17:27:56.136Z,24.53
2019-02-24T17:30:23.960Z,25.83
2019-02-24T17:32:51.715Z,23.67
2019-02-24T17:35:20.385Z,22.60
2019-02-24T17:37:47.077Z,22.40
2019-02-24T17:40:21.223Z,24.40
2019-02-24T17:42:47.660Z,30.90
2019-02-24T17:45:14.759Z,33.17
2019-02-24T17:47:41.184Z,31.67
2019-02-24T17:50:10.031Z,29.00
2019-02-24T17:52:36.595Z,30.20
2019-02-24T17:55:06.969Z,30.87
2019-02-24T17:57:37.379Z,29.13
2019-02-24T18:00:14.250Z,27.50
2019-02-24T18:02:41.656Z,30.07
2019-02-24T18:05:07.982Z,26.33
2019-02-24T18:07:39.432Z,26.33
2019-02-24T18:10:15.877Z,29.63
2019-02-24T18:12:42.619Z,26.77
2019-02-24T18:15:11.024Z,27.47
2019-02-24T18:17:40.734Z,29.57
2019-02-24T18:20:16.450Z,26.77
2019-02-24T18:22:43.255Z,23.37
2019-02-24T18:25:13.298Z,25.87
2019-02-24T18:31:03.386Z,29.07
2019-02-24T18:33:30.268Z,28.40
2019-02-24T18:35:57.449Z,29.23
2019-02-24T18:38:23.861Z,27.63
2019-02-24T18:40:50.468Z,26.53
2019-02-24T18:43:17.175Z,31.43
2019-02-24T18:45:43.335Z,27.63
2019-02-24T18:48:09.679Z,29.00
2019-02-24T18:50:36.028Z,27.07
2019-02-24T18:53:02.856Z,29.10
2019-02-24T18:55:29.469Z,28.03
2019-02-24T18:57:56.152Z,25.87
2019-02-24T19:00:22.821Z,33.17
2019-02-24T19:02:49.718Z,29.50
2019-02-24T19:05:17.509Z,28.30
2019-02-24T19:07:46.036Z,32.23
2019-02-24T19:10:21.830Z,30.30
2019-02-24T19:12:49.386Z,32.83
2019-02-24T19:15:20.547Z,35.57
2019-02-24T19:17:48.297Z,33.97
2019-02-24T19:20:17.923Z,31.60
2019-02-24T19:22:45.371Z,35.57
2019-02-24T19:25:12.497Z,32.00
2019-02-24T19:27:39.128Z,29.73
2019-02-24T19:30:09.032Z,30.10
2019-02-24T19:32:35.409Z,34.30
2019-02-24T19:35:02.318Z,31.70
2019-02-24T19:37:29.199Z,29.17
2019-02-24T19:39:56.632Z,33.10
2019-02-24T19:42:23.184Z,34.73
2019-02-24T19:44:49.696Z,35.67
2019-02-24T19:47:16.307Z,30.73
2019-02-24T19:49:42.970Z,36.03
2019-02-24T19:52:09.208Z,28.67
2019-02-24T19:54:35.457Z,30.53
2019-02-24T19:57:01.935Z,30.37
2019-02-24T19:59:28.479Z,35.90
2019-02-24T20:01:55.342Z,28.93
2019-02-24T20:04:21.802Z,30.27
2019-02-24T20:06:48.851Z,31.43
2019-02-24T20:09:16.150Z,27.20
2019-02-24T20:11:44.055Z,32.13
2019-02-24T20:14:13.186Z,32.77
2019-02-24T20:16:40.073Z,28.07
2019-02-24T20:19:06.628Z,31.40
2019-02-24T20:21:35.237Z,27.80
2019-02-24T20:24:02.474Z,31.33
2019-02-24T20:26:29.515Z,35.83
2019-02-24T20:28:56.287Z,27.30
2019-02-24T20:31:22.977Z,31.43
2019-02-24T20:33:51.395Z,34.47
2019-02-24T20:36:17.949Z,33.00
2019-02-24T20:38:44.253Z,30.43
2019-02-24T20:41:11.093Z,37.77
2019-02-24T20:43:37.651Z,33.97
2019-02-24T20:46:04.139Z,35.80
2019-02-24T20:48:30.768Z,28.90
2019-02-24T20:50:57.060Z,32.43
2019-02-24T20:53:23.517Z,31.70
2019-02-24T20:55:51.245Z,30.50
2019-02-24T20:58:19.318Z,30.10
2019-02-24T21:00:51.618Z,28.93
2019-02-24T21:03:28.755Z,29.33
2019-02-24T21:05:51.703Z,32.60
2019-02-24T21:08:35.464Z,31.13
2019-02-24T21:11:01.979Z,32.47
2019-02-24T21:13:28.361Z,31.97
2019-02-24T21:15:54.743Z,32.90
2019-02-24T21:18:21.671Z,32.10
2019-02-24T21:24:11.495Z,31.40
2019-02-24T21:26:37.750Z,35.33
2019-02-24T21:29:13.169Z,30.63
2019-02-24T21:31:39.182Z,34.50
2019-02-24T21:34:06.728Z,33.80
2019-02-24T21:36:33.056Z,34.80
2019-02-24T21:38:59.559Z,32.53
2019-02-24T21:41:25.945Z,35.87
2019-02-24T21:43:52.730Z,36.07
2019-02-24T21:46:19.396Z,31.77
2019-02-24T21:48:46.104Z,38.47
2019-02-24T21:51:13.086Z,30.83
2019-02-24T21:53:41.999Z,34.13
2019-02-24T21:56:11.510Z,37.97
2019-02-24T21:58:38.554Z,31.53
2019-02-24T22:01:12.372Z,31.83
2019-02-24T22:03:43.023Z,35.53
2019-02-24T22:09:35.259Z,32.03
2019-02-24T22:12:02.209Z,34.07
2019-02-24T22:14:28.819Z,32.20
2019-02-24T22:16:55.175Z,33.17
2019-02-24T22:19:21.516Z,31.80
2019-02-24T22:21:47.718Z,35.47
2019-02-24T22:24:14.045Z,36.93
2019-02-24T22:26:40.365Z,36.57
2019-02-24T22:29:06.592Z,36.07
2019-02-24T22:31:32.898Z,34.30
2019-02-24T22:33:59.290Z,33.30
2019-02-24T22:36:25.784Z,34.73
2019-02-24T22:38:52.031Z,37.10
2019-02-24T22:41:19.170Z,35.40
2019-02-24T22:43:46.421Z,37.63
2019-02-24T22:46:12.626Z,34.97
2019-02-24T22:48:38.949Z,31.80
2019-02-24T22:51:05.761Z,36.57
2019-02-24T22:53:32.224Z,36.47
2019-02-24T22:55:58.827Z,41.03
2019-02-24T22:58:25.194Z,39.90
2019-02-24T23:00:58.558Z,37.60
2019-02-24T23:03:30.932Z,37.37
2019-02-24T23:05:57.399Z,41.90
2019-02-24T23:08:24.017Z,40.20
2019-02-24T23:10:50.437Z,37.40
2019-02-24T23:13:16.846Z,38.00
2019-02-24T23:15:43.325Z,40.27
2019-02-24T23:18:09.874Z,31.83
2019-02-24T23:20:36.412Z,33.10
2019-02-24T23:23:03.179Z,35.17
2019-02-24T23:25:29.954Z,35.50
2019-02-24T23:27:56.300Z,37.03
2019-02-24T23:30:23.301Z,34.70
2019-02-24T23:32:49.761Z,37.67
2019-02-24T23:35:16.156Z,32.87
2019-02-24T23:37:42.410Z,31.53
2019-02-24T23:40:08.867Z,35.43
2019-02-24T23:42:44.633Z,30.10
2019-02-24T23:45:11.595Z,31.10
2019-02-24T23:47:38.184Z,33.13
2019-02-24T23:50:12.212Z,32.80
2019-02-24T23:52:38.817Z,36.27
2019-02-24T23:55:06.384Z,32.90
2019-02-24T23:57:32.733Z,34.47
2019-02-24T23:59:59.047Z,32.93
